createdAt,value
2022-12-05T00:01:20.143Z,13.63
2022-12-05T00:03:48.975Z,13.57
2022-12-05T00:06:17.101Z,13.56
2022-12-05T00:08:45.881Z,13.53
2022-12-05T00:11:14.395Z,13.44
2022-12-05T00:13:42.648Z,13.72
2022-12-05T00:16:14.111Z,13.71
2022-12-05T00:18:42.181Z,13.73
2022-12-05T00:21:14.531Z,13.87
2022-12-05T00:23:42.386Z,13.69
2022-12-05T00:26:10.737Z,13.75
2022-12-05T00:28:39.082Z,13.49
2022-12-05T00:31:08.986Z,13.62
2022-12-05T00:33:38.967Z,13.11
2022-12-05T00:36:08.434Z,13.42
2022-12-05T00:38:36.848Z,13.61
2022-12-05T00:41:05.068Z,13.70
2022-12-05T00:43:33.556Z,13.48
2022-12-05T00:46:02.904Z,13.51
2022-12-05T00:48:31.079Z,13.48
2022-12-05T00:51:04.103Z,13.57
2022-12-05T00:53:32.115Z,13.56
2022-12-05T00:56:03.023Z,13.74
2022-12-05T00:58:31.092Z,13.72
2022-12-05T01:00:59.039Z,13.60
2022-12-05T01:03:26.988Z,13.47
2022-12-05T01:05:54.930Z,13.55
2022-12-05T01:08:24.911Z,13.48
2022-12-05T01:10:56.183Z,13.50
2022-12-05T01:13:24.616Z,13.43
2022-12-05T01:15:52.428Z,13.41
2022-12-05T01:18:20.599Z,13.57
2022-12-05T01:20:48.945Z,13.55
2022-12-05T01:23:17.237Z,13.23
2022-12-05T01:25:48.604Z,13.42
2022-12-05T01:28:17.050Z,13.43
2022-12-05T01:30:48.368Z,13.60
2022-12-05T01:33:16.660Z,13.73
2022-12-05T01:35:44.692Z,13.78
2022-12-05T01:38:13.703Z,13.42
2022-12-05T01:40:42.030Z,13.55
2022-12-05T01:43:16.821Z,13.56
2022-12-05T01:45:46.563Z,13.69
2022-12-05T01:48:18.420Z,13.73
2022-12-05T01:50:46.616Z,13.73
2022-12-05T01:53:14.905Z,13.61
2022-12-05T01:55:42.803Z,13.48
2022-12-05T01:58:11.176Z,13.68
2022-12-05T02:00:44.464Z,13.60
2022-12-05T02:03:16.291Z,13.38
2022-12-05T02:05:45.132Z,13.48
2022-12-05T02:08:13.195Z,13.54
2022-12-05T02:10:44.116Z,13.75
2022-12-05T02:13:27.047Z,13.60
2022-12-05T02:16:01.775Z,13.50
2022-12-05T02:18:39.074Z,13.50
2022-12-05T02:21:32.593Z,13.56
2022-12-05T02:24:24.305Z,13.77
2022-12-05T02:27:07.700Z,13.50
2022-12-05T02:29:54.539Z,13.60
2022-12-05T02:32:29.757Z,13.52
2022-12-05T02:35:01.823Z,13.48
2022-12-05T02:37:31.891Z,13.48
2022-12-05T02:40:04.575Z,13.46
2022-12-05T02:42:34.449Z,13.63
2022-12-05T02:45:07.325Z,13.72
2022-12-05T02:47:42.367Z,13.72
2022-12-05T02:50:13.497Z,13.59
2022-12-05T02:52:42.423Z,13.57
2022-12-05T02:55:10.602Z,13.52
2022-12-05T02:57:39.125Z,13.57
2022-12-05T03:00:10.023Z,13.52
2022-12-05T03:02:41.159Z,13.52
2022-12-05T03:05:16.193Z,13.49
2022-12-05T03:07:46.960Z,13.63
2022-12-05T03:10:17.994Z,13.70
2022-12-05T03:12:48.938Z,13.84
2022-12-05T03:15:19.766Z,13.81
2022-12-05T03:17:52.622Z,13.87
2022-12-05T03:20:23.798Z,13.69
2022-12-05T03:22:55.697Z,13.69
2022-12-05T03:25:25.512Z,13.85
2022-12-05T03:27:54.947Z,13.85
2022-12-05T03:30:24.528Z,13.75
2022-12-05T03:32:56.098Z,13.87
2022-12-05T03:35:27.931Z,13.85
2022-12-05T03:38:00.975Z,13.91
2022-12-05T03:40:34.314Z,13.87
2022-12-05T03:43:09.100Z,13.94
2022-12-05T03:45:50.658Z,14.00
2022-12-05T03:48:24.944Z,13.88
2022-12-05T03:50:54.627Z,13.79
2022-12-05T03:53:27.102Z,13.91
2022-12-05T03:56:00.550Z,13.91
2022-12-05T03:58:31.614Z,13.86
2022-12-05T04:01:02.791Z,13.94
2022-12-05T04:03:39.546Z,13.83
2022-12-05T04:06:14.131Z,13.87
2022-12-05T04:08:46.255Z,13.93
2022-12-05T04:11:16.951Z,13.77
2022-12-05T04:13:46.916Z,13.73
2022-12-05T04:16:37.662Z,13.93
2022-12-05T04:19:10.902Z,13.92
2022-12-05T04:21:40.982Z,13.79
2022-12-05T04:24:29.003Z,13.78
2022-12-05T04:27:05.025Z,13.83
2022-12-05T04:29:38.366Z,13.86
2022-12-05T04:32:10.521Z,13.91
2022-12-05T04:34:39.024Z,13.92
2022-12-05T04:37:12.147Z,13.82
2022-12-05T04:39:44.067Z,13.90
2022-12-05T04:42:14.438Z,13.88
2022-12-05T04:44:45.979Z,13.76
2022-12-05T04:47:16.906Z,13.82
2022-12-05T04:49:49.301Z,13.92
2022-12-05T04:52:21.731Z,13.77
2022-12-05T04:54:52.209Z,13.95
2022-12-05T04:57:23.552Z,13.86
2022-12-05T04:59:51.590Z,14.00
2022-12-05T05:02:25.029Z,13.77
2022-12-05T05:04:54.423Z,13.82
2022-12-05T05:07:22.418Z,13.91
2022-12-05T05:09:50.227Z,13.80
2022-12-05T05:12:19.315Z,13.90
2022-12-05T05:14:47.314Z,13.94
2022-12-05T05:17:15.334Z,13.67
2022-12-05T05:19:44.539Z,13.87
2022-12-05T05:22:12.356Z,13.96
2022-12-05T05:24:40.156Z,13.98
2022-12-05T05:27:07.945Z,13.85
2022-12-05T05:29:35.682Z,13.70
2022-12-05T05:32:03.572Z,13.98
2022-12-05T05:34:31.405Z,14.00
2022-12-05T05:37:00.632Z,13.97
2022-12-05T05:39:29.723Z,14.00
2022-12-05T05:41:57.614Z,14.08
2022-12-05T05:44:25.404Z,13.97
2022-12-05T05:46:54.480Z,13.89
2022-12-05T05:49:22.426Z,14.06
2022-12-05T05:51:50.401Z,13.99
2022-12-05T05:54:19.591Z,13.92
2022-12-05T05:56:47.478Z,14.00
2022-12-05T05:59:15.261Z,13.87
2022-12-05T06:01:43.119Z,13.77
2022-12-05T06:04:11.033Z,13.88
2022-12-05T06:06:38.882Z,13.95
2022-12-05T06:09:07.907Z,14.06
2022-12-05T06:11:37.225Z,14.04
2022-12-05T06:14:05.229Z,13.82
2022-12-05T06:16:33.460Z,13.82
2022-12-05T06:19:01.324Z,13.49
2022-12-05T06:21:29.492Z,13.94
2022-12-05T06:23:57.338Z,13.98
2022-12-05T06:26:25.290Z,13.85
2022-12-05T06:28:54.724Z,13.79
2022-12-05T06:31:24.551Z,13.79
2022-12-05T06:33:52.507Z,13.86
2022-12-05T06:36:21.754Z,13.77
2022-12-05T06:38:49.966Z,13.53
2022-12-05T06:41:19.366Z,13.72
2022-12-05T06:43:47.585Z,13.70
2022-12-05T06:46:17.029Z,13.82
2022-12-05T06:48:45.029Z,13.81
2022-12-05T06:51:14.148Z,13.74
2022-12-05T06:53:42.667Z,13.82
2022-12-05T06:56:12.950Z,13.80
2022-12-05T06:58:40.956Z,13.77
2022-12-05T07:01:29.981Z,13.72
2022-12-05T07:03:59.300Z,13.60
2022-12-05T07:06:27.604Z,13.77
2022-12-05T07:08:55.973Z,13.51
2022-12-05T07:11:24.023Z,13.56
2022-12-05T07:13:51.897Z,13.71
2022-12-05T07:16:19.810Z,13.49
2022-12-05T07:18:47.797Z,13.61
2022-12-05T07:21:17.472Z,13.64
2022-12-05T07:23:47.011Z,13.25
2022-12-05T07:26:16.470Z,13.55
2022-12-05T07:28:44.845Z,13.39
2022-12-05T07:31:15.532Z,13.63
2022-12-05T07:33:43.724Z,13.59
2022-12-05T07:36:13.437Z,13.54
2022-12-05T07:38:43.293Z,13.63
2022-12-05T07:41:21.241Z,13.65
2022-12-05T07:43:49.088Z,13.59
2022-12-05T07:46:17.555Z,13.63
2022-12-05T07:48:45.557Z,13.65
2022-12-05T07:51:13.581Z,13.63
2022-12-05T07:53:44.251Z,13.61
2022-12-05T07:56:16.833Z,13.55
2022-12-05T07:58:45.568Z,13.55
2022-12-05T08:01:15.640Z,13.71
2022-12-05T08:03:44.157Z,13.57
2022-12-05T08:06:14.001Z,13.69
2022-12-05T08:08:43.503Z,13.68
2022-12-05T08:11:13.588Z,13.62
2022-12-05T08:13:41.848Z,13.71
2022-12-05T08:16:12.193Z,13.71
2022-12-05T08:18:40.151Z,13.82
2022-12-05T08:21:09.097Z,13.83
2022-12-05T08:23:37.457Z,13.61
2022-12-05T08:26:08.334Z,14.16
2022-12-05T08:28:41.729Z,14.12
2022-12-05T08:31:11.733Z,14.24
2022-12-05T08:33:39.713Z,13.53
2022-12-05T08:36:09.999Z,14.63
2022-12-05T08:38:38.192Z,14.25
2022-12-05T08:41:09.410Z,15.04
2022-12-05T08:43:37.666Z,15.34
2022-12-05T08:46:06.443Z,15.60
2022-12-05T08:48:35.452Z,15.37
2022-12-05T08:51:06.676Z,15.43
2022-12-05T08:53:37.325Z,15.43
2022-12-05T08:56:11.239Z,15.34
2022-12-05T08:58:39.784Z,14.97
2022-12-05T09:01:09.226Z,15.22
2022-12-05T09:03:37.717Z,15.11
2022-12-05T09:06:09.839Z,15.14
2022-12-05T09:08:38.151Z,15.18
2022-12-05T09:11:07.435Z,15.61
2022-12-05T09:13:36.927Z,15.91
2022-12-05T09:16:08.635Z,15.70
2022-12-05T09:18:38.033Z,15.45
2022-12-05T09:21:11.270Z,15.20
2022-12-05T09:23:41.484Z,14.99
2022-12-05T09:26:12.869Z,14.36
2022-12-05T09:28:42.828Z,14.36
2022-12-05T09:31:15.836Z,14.58
2022-12-05T09:33:43.888Z,14.70
2022-12-05T09:36:14.569Z,14.36
2022-12-05T09:38:42.661Z,14.30
2022-12-05T09:41:17.230Z,14.10
2022-12-05T09:43:51.054Z,14.16
2022-12-05T09:46:23.010Z,14.15
2022-12-05T09:48:51.624Z,14.01
2022-12-05T09:51:19.495Z,14.02
2022-12-05T09:53:48.150Z,14.22
2022-12-05T09:56:22.816Z,14.35
2022-12-05T09:58:54.219Z,14.25
2022-12-05T10:01:28.587Z,14.29
2022-12-05T10:04:14.984Z,14.29
2022-12-05T10:06:48.394Z,14.39
2022-12-05T10:09:27.304Z,14.29
2022-12-05T10:11:59.106Z,14.07
2022-12-05T10:14:35.019Z,14.17
2022-12-05T10:17:09.565Z,14.19
2022-12-05T10:19:41.086Z,14.24
2022-12-05T10:22:20.087Z,14.55
2022-12-05T10:24:50.713Z,14.48
2022-12-05T10:27:20.969Z,14.47
2022-12-05T10:29:57.249Z,14.59
2022-12-05T10:32:28.271Z,14.21
2022-12-05T10:35:03.333Z,14.49
2022-12-05T10:37:31.614Z,14.80
2022-12-05T10:39:59.517Z,15.32
2022-12-05T10:42:29.676Z,15.33
2022-12-05T10:45:02.001Z,14.92
2022-12-05T10:47:30.197Z,14.98
2022-12-05T10:50:01.164Z,14.52
2022-12-05T10:52:29.437Z,14.75
2022-12-05T10:55:00.436Z,15.41
2022-12-05T10:57:30.084Z,15.25
2022-12-05T10:59:59.429Z,14.91
2022-12-05T11:02:29.562Z,14.44
2022-12-05T11:04:58.572Z,14.60
2022-12-05T11:07:31.224Z,15.07
2022-12-05T11:09:59.539Z,15.41
2022-12-05T11:12:29.748Z,15.42
2022-12-05T11:15:02.129Z,15.24
2022-12-05T11:17:33.627Z,15.17
2022-12-05T11:20:02.123Z,15.15
2022-12-05T11:22:34.950Z,15.31
2022-12-05T11:25:26.490Z,15.67
2022-12-05T11:27:59.615Z,15.65
2022-12-05T11:30:30.777Z,15.87
2022-12-05T11:33:13.377Z,15.66
2022-12-05T11:35:41.689Z,15.36
2022-12-05T11:38:12.411Z,15.37
2022-12-05T11:40:45.086Z,15.05
2022-12-05T11:43:32.207Z,15.24
2022-12-05T11:46:08.430Z,15.08
2022-12-05T11:48:45.404Z,14.80
2022-12-05T11:51:27.590Z,14.62
2022-12-05T11:54:30.607Z,14.41
2022-12-05T11:57:13.433Z,14.33
2022-12-05T12:00:05.259Z,14.37
2022-12-05T12:03:15.673Z,14.47
2022-12-05T12:05:48.080Z,15.16
2022-12-05T12:08:21.816Z,15.40
2022-12-05T12:10:56.460Z,15.25
2022-12-05T12:13:35.964Z,15.25
2022-12-05T12:16:12.593Z,15.06
2022-12-05T12:19:25.572Z,14.61
2022-12-05T12:22:04.249Z,14.36
2022-12-05T12:24:43.071Z,14.49
2022-12-05T12:27:16.954Z,14.45
2022-12-05T12:29:55.370Z,14.36
2022-12-05T12:32:30.616Z,14.44
2022-12-05T12:35:09.806Z,15.11
2022-12-05T12:37:42.317Z,15.19
2022-12-05T12:40:15.067Z,15.22
2022-12-05T12:42:51.204Z,15.24
2022-12-05T12:45:33.011Z,15.22
2022-12-05T12:48:09.204Z,15.31
2022-12-05T12:50:44.437Z,15.31
2022-12-05T12:53:33.117Z,15.33
2022-12-05T12:56:08.436Z,15.24
2022-12-05T12:58:46.206Z,15.29
2022-12-05T13:01:22.978Z,15.27
2022-12-05T13:03:53.885Z,15.15
2022-12-05T13:06:27.332Z,15.19
2022-12-05T13:08:58.475Z,15.31
2022-12-05T13:11:26.554Z,15.11
2022-12-05T13:13:56.898Z,15.16
2022-12-05T13:16:27.457Z,15.16
2022-12-05T13:18:56.244Z,15.16
2022-12-05T13:21:26.281Z,15.18
2022-12-05T13:23:56.123Z,15.58
2022-12-05T13:26:24.766Z,15.28
2022-12-05T13:28:54.905Z,15.26
2022-12-05T13:31:36.717Z,15.31
2022-12-05T13:34:04.613Z,15.21
2022-12-05T13:36:58.974Z,14.98
2022-12-05T13:39:44.431Z,14.91
2022-12-05T13:42:22.755Z,14.81
2022-12-05T13:44:52.316Z,14.86
2022-12-05T13:47:28.803Z,14.76
2022-12-05T13:49:59.714Z,14.68
2022-12-05T13:52:31.409Z,14.63
2022-12-05T13:55:02.272Z,14.56
2022-12-05T13:57:49.071Z,14.67
2022-12-05T14:00:31.974Z,14.63
2022-12-05T14:03:05.442Z,14.67
2022-12-05T14:05:44.187Z,14.58
2022-12-05T14:08:54.095Z,14.69
2022-12-05T14:11:23.312Z,14.57
2022-12-05T14:13:51.720Z,14.58
2022-12-05T14:16:50.480Z,14.72
2022-12-05T14:19:50.026Z,14.78
2022-12-05T14:22:40.736Z,14.77
2022-12-05T14:25:14.501Z,14.76
2022-12-05T14:27:51.755Z,14.63
2022-12-05T14:30:24.864Z,14.64
2022-12-05T14:32:53.894Z,14.53
2022-12-05T14:35:26.920Z,14.49
2022-12-05T14:37:56.866Z,14.66
2022-12-05T14:40:31.325Z,14.56
2022-12-05T14:43:02.775Z,14.56
2022-12-05T14:45:36.462Z,14.60
2022-12-05T14:48:07.060Z,14.58
2022-12-05T14:50:39.703Z,14.63
2022-12-05T14:53:31.296Z,14.61
2022-12-05T14:56:05.909Z,14.64
2022-12-05T14:58:37.059Z,14.68
2022-12-05T15:01:08.951Z,14.66
2022-12-05T15:03:39.660Z,14.71
2022-12-05T15:06:12.619Z,14.66
2022-12-05T15:08:45.865Z,14.69
2022-12-05T15:11:28.018Z,14.66
2022-12-05T15:14:01.899Z,14.72
2022-12-05T15:16:30.530Z,14.83
2022-12-05T15:19:01.456Z,15.25
2022-12-05T15:21:33.282Z,15.55
2022-12-05T15:24:01.931Z,16.19
2022-12-05T15:26:48.902Z,16.49
2022-12-05T15:29:26.515Z,16.59
2022-12-05T15:31:55.879Z,16.55
2022-12-05T15:34:26.917Z,16.52
2022-12-05T15:36:59.943Z,16.54
2022-12-05T15:39:28.570Z,16.54
2022-12-05T15:41:57.588Z,16.54
2022-12-05T15:44:36.113Z,16.57
2022-12-05T15:47:06.161Z,16.78
2022-12-05T15:49:36.249Z,16.88
2022-12-05T15:52:23.969Z,16.79
2022-12-05T15:54:53.504Z,16.96
2022-12-05T15:57:25.936Z,17.06
2022-12-05T15:59:58.161Z,17.14
2022-12-05T16:02:30.945Z,16.98
2022-12-05T16:04:59.506Z,16.94
2022-12-05T16:07:30.041Z,16.93
2022-12-05T16:09:59.365Z,17.00
2022-12-05T16:12:28.878Z,16.91
2022-12-05T16:15:02.517Z,17.12
2022-12-05T16:17:39.281Z,17.04
2022-12-05T16:20:22.969Z,17.13
2022-12-05T16:22:51.818Z,16.99
2022-12-05T16:25:24.251Z,16.97
2022-12-05T16:27:59.773Z,16.97
2022-12-05T16:30:29.623Z,16.91
2022-12-05T16:33:03.467Z,17.07
2022-12-05T16:35:41.598Z,17.15
2022-12-05T16:38:15.510Z,17.17
2022-12-05T16:40:53.191Z,17.01
2022-12-05T16:43:26.424Z,16.81
2022-12-05T16:45:58.564Z,16.72
2022-12-05T16:48:27.334Z,16.72
2022-12-05T16:51:17.484Z,16.70
2022-12-05T16:53:47.219Z,16.63
2022-12-05T16:56:16.724Z,16.63
2022-12-05T16:58:44.553Z,16.59
2022-12-05T17:01:18.898Z,16.52
2022-12-05T17:03:47.117Z,16.52
2022-12-05T17:06:15.807Z,16.36
2022-12-05T17:08:44.199Z,16.24
2022-12-05T17:11:16.947Z,16.39
2022-12-05T17:13:45.640Z,16.42
2022-12-05T17:16:14.960Z,16.42
2022-12-05T17:18:42.947Z,16.21
2022-12-05T17:21:13.001Z,16.37
2022-12-05T17:23:45.993Z,16.46
2022-12-05T17:26:16.962Z,16.48
2022-12-05T17:28:44.813Z,16.46
2022-12-05T17:31:17.239Z,16.47
2022-12-05T17:33:45.847Z,16.52
2022-12-05T17:36:14.089Z,16.48
2022-12-05T17:38:42.297Z,16.48
2022-12-05T17:41:15.795Z,16.46
2022-12-05T17:43:43.752Z,16.33
2022-12-05T17:46:11.572Z,16.37
2022-12-05T17:48:40.743Z,16.41
2022-12-05T17:51:11.252Z,15.80
2022-12-05T17:53:39.063Z,16.19
2022-12-05T17:56:07.110Z,15.78
2022-12-05T17:58:35.144Z,15.79
2022-12-05T18:01:03.905Z,15.93
2022-12-05T18:03:31.868Z,15.30
2022-12-05T18:06:03.745Z,14.50
2022-12-05T18:08:31.799Z,15.47
2022-12-05T18:10:59.634Z,15.58
2022-12-05T18:13:27.766Z,15.52
2022-12-05T18:15:58.014Z,15.25
2022-12-05T18:18:27.363Z,14.36
2022-12-05T18:21:06.356Z,14.94
2022-12-05T18:23:35.696Z,15.30
2022-12-05T18:26:03.581Z,14.21
2022-12-05T18:28:31.540Z,13.70
2022-12-05T18:31:06.942Z,14.08
2022-12-05T18:33:34.811Z,13.77
2022-12-05T18:36:08.757Z,13.69
2022-12-05T18:38:37.005Z,14.20
2022-12-05T18:41:05.613Z,15.40
2022-12-05T18:43:33.975Z,13.50
2022-12-05T18:46:03.846Z,13.96
2022-12-05T18:48:42.536Z,14.80
2022-12-05T18:51:16.380Z,14.60
2022-12-05T18:53:51.895Z,15.56
2022-12-05T18:56:23.462Z,15.42
2022-12-05T18:58:56.040Z,13.14
2022-12-05T19:01:24.535Z,14.45
2022-12-05T19:03:52.669Z,14.28
2022-12-05T19:06:23.856Z,14.96
2022-12-05T19:08:54.575Z,14.91
2022-12-05T19:11:22.739Z,13.61
2022-12-05T19:13:51.139Z,13.84
2022-12-05T19:16:18.937Z,12.04
2022-12-05T19:18:47.590Z,13.63
2022-12-05T19:21:15.492Z,14.64
2022-12-05T19:23:44.632Z,14.27
2022-12-05T19:26:12.518Z,14.33
2022-12-05T19:28:40.337Z,13.78
2022-12-05T19:31:09.724Z,14.09
2022-12-05T19:33:39.004Z,13.53
2022-12-05T19:36:09.904Z,13.82
2022-12-05T19:38:38.478Z,14.82
2022-12-05T19:41:09.028Z,13.49
2022-12-05T19:43:37.510Z,14.08
2022-12-05T19:46:06.660Z,13.94
2022-12-05T19:48:34.657Z,14.05
2022-12-05T19:51:03.101Z,13.06
2022-12-05T19:53:32.651Z,14.78
2022-12-05T19:56:02.314Z,14.52
2022-12-05T19:58:34.170Z,14.71
2022-12-05T20:01:08.275Z,12.96
2022-12-05T20:03:36.408Z,12.35
2022-12-05T20:06:04.870Z,14.36
2022-12-05T20:08:32.928Z,13.09
2022-12-05T20:11:05.116Z,11.42
2022-12-05T20:13:46.528Z,13.80
2022-12-05T20:16:16.805Z,13.13
2022-12-05T20:18:44.917Z,13.47
2022-12-05T20:21:14.892Z,13.74
2022-12-05T20:23:43.116Z,13.58
2022-12-05T20:26:13.010Z,13.24
2022-12-05T20:28:42.682Z,12.75
2022-12-05T20:31:12.283Z,12.43
2022-12-05T20:33:40.861Z,12.80
2022-12-05T20:36:10.853Z,12.74
2022-12-05T20:38:38.758Z,12.95
2022-12-05T20:41:08.249Z,12.37
2022-12-05T20:43:36.515Z,12.18
2022-12-05T20:46:07.349Z,12.63
2022-12-05T20:48:35.925Z,11.10
2022-12-05T20:51:08.068Z,11.09
2022-12-05T20:53:36.639Z,11.71
2022-12-05T20:56:05.803Z,12.59
2022-12-05T20:58:33.915Z,12.75
2022-12-05T21:01:02.334Z,12.34
2022-12-05T21:03:31.865Z,12.64
2022-12-05T21:05:59.793Z,11.77
2022-12-05T21:08:27.627Z,13.37
2022-12-05T21:10:55.953Z,11.96
2022-12-05T21:13:23.788Z,12.10
2022-12-05T21:15:51.877Z,13.18
2022-12-05T21:18:19.905Z,12.11
2022-12-05T21:20:57.876Z,11.85
2022-12-05T21:23:25.810Z,12.57
2022-12-05T21:25:53.746Z,11.59
2022-12-05T21:28:22.118Z,13.19
2022-12-05T21:30:49.904Z,12.32
2022-12-05T21:33:17.777Z,12.13
2022-12-05T21:35:54.674Z,11.99
2022-12-05T21:38:23.830Z,12.12
2022-12-05T21:40:52.693Z,11.53
2022-12-05T21:43:20.501Z,11.31
2022-12-05T21:45:53.135Z,11.07
2022-12-05T21:48:21.685Z,11.48
2022-12-05T21:50:51.377Z,11.45
2022-12-05T21:53:19.692Z,11.09
2022-12-05T21:55:49.413Z,10.98
2022-12-05T21:58:17.206Z,11.67
2022-12-05T22:00:44.986Z,12.06
2022-12-05T22:03:14.869Z,12.42
2022-12-05T22:05:43.640Z,11.38
2022-12-05T22:08:12.101Z,11.37
2022-12-05T22:10:39.975Z,12.35
2022-12-05T22:13:09.199Z,10.65
2022-12-05T22:15:37.006Z,11.08
2022-12-05T22:18:04.941Z,11.44
2022-12-05T22:20:32.823Z,10.70
2022-12-05T22:23:00.595Z,10.91
2022-12-05T22:25:28.393Z,9.89
2022-12-05T22:27:56.369Z,11.67
2022-12-05T22:30:25.536Z,11.89
2022-12-05T22:32:54.309Z,11.18
2022-12-05T22:35:22.144Z,11.96
2022-12-05T22:37:49.875Z,13.28
2022-12-05T22:40:17.861Z,12.34
2022-12-05T22:42:45.709Z,10.96
2022-12-05T22:45:13.490Z,11.43
2022-12-05T22:47:42.975Z,11.08
2022-12-05T22:50:11.529Z,10.70
2022-12-05T22:52:39.386Z,11.10
2022-12-05T22:55:09.882Z,11.83
2022-12-05T22:57:37.706Z,10.85
2022-12-05T23:00:07.213Z,12.57
2022-12-05T23:02:35.090Z,12.08
2022-12-05T23:05:07.466Z,10.65
2022-12-05T23:07:36.107Z,10.78
2022-12-05T23:10:04.085Z,10.36
2022-12-05T23:12:32.071Z,11.36
2022-12-05T23:14:59.850Z,10.62
2022-12-05T23:17:27.676Z,11.17
2022-12-05T23:19:55.460Z,10.26
2022-12-05T23:22:24.609Z,11.39
2022-12-05T23:24:52.462Z,11.86
2022-12-05T23:27:20.250Z,12.42
2022-12-05T23:29:48.602Z,11.94
2022-12-05T23:32:16.417Z,10.59
2022-12-05T23:34:44.373Z,10.38
2022-12-05T23:37:12.151Z,10.77
2022-12-05T23:39:41.538Z,10.91
2022-12-05T23:42:14.963Z,12.04
2022-12-05T23:44:43.071Z,11.83
2022-12-05T23:47:10.933Z,12.07
2022-12-05T23:49:38.821Z,12.01
2022-12-05T23:52:06.943Z,11.15
2022-12-05T23:54:35.244Z,11.90
2022-12-05T23:57:04.580Z,11.28
2022-12-05T23:59:32.524Z,11.26
